createdAt,value
2018-09-20T00:01:14.018Z,67.38
2018-09-20T00:03:49.013Z,67.60
2018-09-20T00:06:26.995Z,67.35
2018-09-20T00:12:00.988Z,67.46
2018-09-20T00:14:35.538Z,66.78
2018-09-20T00:17:10.242Z,66.30
2018-09-20T00:19:44.874Z,66.09
2018-09-20T00:22:19.416Z,66.42
2018-09-20T00:24:53.952Z,66.52
2018-09-20T00:27:28.557Z,66.18
2018-09-20T00:30:03.163Z,66.55
2018-09-20T00:32:37.844Z,66.63
2018-09-20T00:35:12.706Z,67.04
2018-09-20T00:37:47.312Z,67.48
2018-09-20T00:40:21.826Z,68.05
2018-09-20T00:42:56.272Z,68.77
2018-09-20T00:45:30.855Z,68.72
2018-09-20T00:48:05.759Z,69.19
2018-09-20T00:50:40.231Z,68.91
2018-09-20T00:53:14.853Z,69.28
2018-09-20T00:55:49.542Z,69.12
2018-09-20T00:58:24.202Z,69.84
2018-09-20T01:00:58.736Z,69.05
2018-09-20T01:03:33.511Z,68.81
2018-09-20T01:06:08.136Z,68.83
2018-09-20T01:08:42.672Z,68.77
2018-09-20T01:11:17.692Z,70.20
2018-09-20T01:13:52.283Z,69.89
2018-09-20T01:16:26.889Z,70.41
2018-09-20T01:19:01.346Z,70.07
2018-09-20T01:21:35.853Z,70.03
2018-09-20T01:24:10.565Z,70.14
2018-09-20T01:26:45.282Z,70.90
2018-09-20T01:29:19.825Z,71.27
2018-09-20T01:31:54.532Z,70.94
2018-09-20T01:34:29.261Z,70.58
2018-09-20T01:37:03.789Z,70.89
2018-09-20T01:39:38.474Z,70.73
2018-09-20T01:42:13.023Z,70.88
2018-09-20T01:44:47.481Z,71.13
2018-09-20T01:47:21.924Z,70.85
2018-09-20T01:49:56.471Z,70.43
2018-09-20T01:52:31.300Z,70.10
2018-09-20T01:55:06.015Z,70.64
2018-09-20T01:57:40.738Z,70.28
2018-09-20T02:00:15.365Z,70.25
2018-09-20T02:02:50.134Z,70.80
2018-09-20T02:05:24.867Z,71.55
2018-09-20T02:07:59.343Z,71.69
2018-09-20T02:10:34.020Z,72.42
2018-09-20T02:13:08.688Z,71.85
2018-09-20T02:15:43.308Z,72.30
2018-09-20T02:18:17.964Z,72.13
2018-09-20T02:20:52.729Z,72.60
2018-09-20T02:23:27.237Z,72.58
2018-09-20T02:26:01.909Z,72.63
2018-09-20T02:28:36.617Z,73.36
2018-09-20T02:31:11.248Z,73.17
2018-09-20T02:33:46.020Z,73.70
2018-09-20T02:36:20.613Z,73.40
2018-09-20T02:38:55.205Z,73.29
2018-09-20T02:41:29.873Z,73.20
2018-09-20T02:44:04.832Z,73.51
2018-09-20T02:46:39.557Z,73.03
2018-09-20T02:49:14.193Z,72.98
2018-09-20T02:51:48.748Z,73.19
2018-09-20T02:54:23.265Z,73.95
2018-09-20T02:56:57.899Z,74.52
2018-09-20T02:59:32.769Z,73.98
2018-09-20T03:02:07.426Z,74.20
2018-09-20T03:04:42.005Z,73.85
2018-09-20T03:07:16.491Z,74.41
2018-09-20T03:09:51.251Z,74.43
2018-09-20T03:12:25.789Z,74.71
2018-09-20T03:15:00.280Z,74.64
2018-09-20T03:17:54.853Z,74.72
2018-09-20T03:20:29.423Z,75.18
2018-09-20T03:23:04.029Z,75.30
2018-09-20T03:25:38.696Z,75.89
2018-09-20T03:28:13.249Z,75.19
2018-09-20T03:30:47.996Z,74.62
2018-09-20T03:33:22.625Z,75.02
2018-09-20T03:35:57.207Z,75.08
2018-09-20T03:38:31.897Z,75.05
2018-09-20T03:41:06.451Z,75.41
2018-09-20T03:43:41.082Z,75.32
2018-09-20T03:46:15.648Z,75.50
2018-09-20T03:48:50.180Z,76.08
2018-09-20T03:51:24.902Z,76.06
2018-09-20T03:53:59.682Z,75.91
2018-09-20T03:56:34.936Z,75.46
2018-09-20T03:59:09.666Z,75.54
2018-09-20T04:01:44.320Z,76.10
2018-09-20T04:04:18.942Z,76.18
2018-09-20T04:06:53.590Z,76.12
2018-09-20T04:09:28.369Z,76.21
2018-09-20T04:12:03.024Z,76.74
2018-09-20T04:14:37.769Z,76.71
2018-09-20T04:17:12.471Z,77.02
2018-09-20T04:19:47.163Z,76.99
2018-09-20T04:22:21.812Z,76.99
2018-09-20T04:24:56.352Z,76.82
2018-09-20T04:27:31.159Z,76.99
2018-09-20T04:30:06.012Z,77.02
2018-09-20T04:32:40.814Z,77.69
2018-09-20T04:35:15.457Z,77.68
2018-09-20T04:37:49.982Z,77.29
2018-09-20T04:40:24.644Z,76.65
2018-09-20T04:42:59.281Z,76.50
2018-09-20T04:45:33.880Z,76.87
2018-09-20T04:48:08.328Z,77.19
2018-09-20T04:50:42.913Z,77.05
2018-09-20T04:53:17.483Z,76.97
2018-09-20T04:55:52.247Z,77.30
2018-09-20T04:58:26.845Z,77.82
2018-09-20T05:01:01.377Z,77.43
2018-09-20T05:03:35.788Z,77.11
2018-09-20T05:06:10.377Z,77.18
2018-09-20T05:08:45.037Z,77.10
2018-09-20T05:11:19.498Z,77.03
2018-09-20T05:13:53.961Z,77.42
2018-09-20T05:16:28.461Z,77.07
2018-09-20T05:19:03.179Z,76.93
2018-09-20T05:21:37.692Z,76.59
2018-09-20T05:24:12.313Z,76.51
2018-09-20T05:26:47.055Z,76.19
2018-09-20T05:29:21.651Z,76.47
2018-09-20T05:31:56.253Z,75.96
2018-09-20T05:34:30.941Z,75.92
2018-09-20T05:37:05.557Z,75.44
2018-09-20T05:39:40.177Z,75.24
2018-09-20T05:42:14.809Z,75.35
2018-09-20T05:44:49.441Z,75.11
2018-09-20T05:47:24.070Z,74.56
2018-09-20T05:49:58.684Z,75.10
2018-09-20T05:52:33.229Z,74.20
2018-09-20T05:55:07.755Z,74.15
2018-09-20T05:57:42.205Z,74.48
2018-09-20T06:00:17.064Z,73.65
2018-09-20T06:02:51.545Z,73.77
2018-09-20T06:05:26.055Z,73.58
2018-09-20T06:08:00.690Z,73.57
2018-09-20T06:10:35.440Z,73.47
2018-09-20T06:13:10.136Z,73.35
2018-09-20T06:15:44.745Z,74.61
2018-09-20T06:18:19.557Z,73.84
2018-09-20T06:20:54.047Z,73.25
2018-09-20T06:23:28.701Z,72.89
2018-09-20T06:26:03.137Z,71.84
2018-09-20T06:28:37.658Z,71.40
2018-09-20T06:31:12.225Z,71.57
2018-09-20T06:33:46.653Z,70.80
2018-09-20T06:36:21.238Z,70.25
2018-09-20T06:38:55.784Z,68.08
2018-09-20T06:41:30.634Z,63.27
2018-09-20T06:44:05.157Z,58.81
2018-09-20T06:46:39.934Z,53.02
2018-09-20T06:49:14.593Z,49.17
2018-09-20T06:51:49.307Z,44.94
2018-09-20T06:54:29.872Z,41.59
2018-09-20T06:57:08.298Z,40.47
2018-09-20T06:59:43.163Z,37.50
2018-09-20T07:02:17.762Z,36.85
2018-09-20T07:04:52.301Z,34.17
2018-09-20T07:07:26.831Z,33.52
2018-09-20T07:10:01.761Z,34.46
2018-09-20T07:12:36.489Z,32.04
2018-09-20T07:15:11.022Z,33.70
2018-09-20T07:17:46.323Z,31.98
2018-09-20T07:20:20.991Z,32.44
2018-09-20T07:22:55.700Z,37.39
2018-09-20T07:25:31.034Z,39.27
2018-09-20T07:28:05.490Z,44.64
2018-09-20T07:34:03.412Z,46.17
2018-09-20T07:36:38.935Z,45.04
2018-09-20T07:39:14.147Z,45.55
2018-09-20T07:41:50.300Z,47.60
2018-09-20T07:44:25.282Z,47.87
2018-09-20T07:49:39.385Z,50.97
2018-09-20T07:52:14.240Z,51.36
2018-09-20T07:54:48.654Z,53.42
2018-09-20T07:57:26.070Z,56.20
2018-09-20T08:00:02.320Z,55.97
2018-09-20T08:02:37.451Z,54.76
2018-09-20T08:05:12.016Z,57.25
2018-09-20T08:07:46.568Z,57.87
2018-09-20T08:10:22.074Z,56.85
2018-09-20T08:12:56.686Z,57.51
2018-09-20T08:15:31.140Z,57.35
2018-09-20T08:18:05.689Z,55.82
2018-09-20T08:20:40.270Z,56.28
2018-09-20T08:23:14.924Z,55.82
2018-09-20T08:25:49.528Z,55.70
2018-09-20T08:28:24.009Z,55.88
2018-09-20T08:30:58.653Z,56.69
2018-09-20T08:33:33.344Z,56.15
2018-09-20T08:36:07.876Z,55.64
2018-09-20T08:38:42.485Z,55.25
2018-09-20T08:41:17.172Z,55.21
2018-09-20T08:43:51.696Z,54.45
2018-09-20T08:46:26.120Z,55.13
2018-09-20T08:49:00.887Z,55.32
2018-09-20T08:51:35.385Z,54.13
2018-09-20T08:54:09.920Z,54.29
2018-09-20T08:56:44.462Z,54.79
2018-09-20T08:59:18.962Z,53.20
2018-09-20T09:01:53.729Z,52.17
2018-09-20T09:10:27.088Z,50.34
2018-09-20T09:13:01.664Z,51.00
2018-09-20T09:15:36.161Z,50.94
2018-09-20T09:21:14.064Z,51.92
2018-09-20T09:23:48.640Z,53.11
2018-09-20T09:26:23.127Z,52.09
2018-09-20T09:28:57.646Z,53.40
2018-09-20T09:31:32.357Z,52.93
2018-09-20T09:34:06.975Z,52.81
2018-09-20T09:36:41.585Z,53.73
2018-09-20T09:39:16.216Z,53.48
2018-09-20T09:41:50.647Z,53.88
2018-09-20T09:44:25.188Z,53.36
2018-09-20T09:46:59.768Z,51.47
2018-09-20T09:49:34.331Z,51.24
2018-09-20T09:52:09.041Z,50.76
2018-09-20T09:54:43.492Z,50.85
2018-09-20T09:57:18.176Z,49.57
2018-09-20T09:59:52.819Z,48.03
2018-09-20T10:02:27.500Z,50.61
2018-09-20T10:05:02.137Z,51.07
2018-09-20T10:07:36.521Z,50.48
2018-09-20T10:10:10.884Z,51.39
2018-09-20T10:12:45.625Z,49.87
2018-09-20T10:15:20.234Z,49.71
2018-09-20T10:17:54.620Z,49.70
2018-09-20T10:20:29.185Z,48.74
2018-09-20T10:23:03.716Z,48.61
2018-09-20T10:25:38.568Z,48.79
2018-09-20T10:28:13.145Z,48.84
2018-09-20T10:30:53.444Z,49.20
2018-09-20T10:33:41.708Z,49.57
2018-09-20T10:36:16.079Z,49.41
2018-09-20T10:38:50.400Z,48.65
2018-09-20T10:41:24.700Z,50.41
2018-09-20T10:43:59.090Z,49.72
2018-09-20T10:46:33.503Z,48.86
2018-09-20T10:49:07.888Z,47.48
2018-09-20T10:51:42.356Z,47.18
2018-09-20T10:54:16.789Z,47.14
2018-09-20T10:56:51.033Z,47.40
2018-09-20T10:59:25.463Z,47.89
2018-09-20T11:02:00.096Z,47.40
2018-09-20T11:04:34.427Z,47.18
2018-09-20T11:07:08.731Z,46.68
2018-09-20T11:09:43.182Z,46.30
2018-09-20T11:12:17.591Z,47.11
2018-09-20T11:14:51.959Z,47.17
2018-09-20T11:17:26.239Z,47.34
2018-09-20T11:20:00.507Z,48.13
2018-09-20T11:22:34.891Z,47.57
2018-09-20T11:25:09.581Z,47.33
2018-09-20T11:27:43.995Z,46.89
2018-09-20T11:30:18.376Z,47.26
2018-09-20T11:32:52.786Z,45.98
2018-09-20T11:35:27.195Z,46.95
2018-09-20T11:38:01.916Z,46.95
2018-09-20T11:40:36.131Z,46.50
2018-09-20T11:43:10.719Z,46.45
2018-09-20T11:45:45.128Z,45.75
2018-09-20T11:48:19.920Z,46.15
2018-09-20T11:50:54.252Z,47.16
2018-09-20T11:53:28.599Z,45.30
2018-09-20T11:56:03.024Z,45.23
2018-09-20T11:58:37.399Z,44.52
2018-09-20T12:04:15.284Z,44.87
2018-09-20T12:06:49.620Z,44.32
2018-09-20T12:09:23.965Z,43.90
2018-09-20T12:11:58.360Z,44.26
2018-09-20T12:14:32.762Z,44.19
2018-09-20T12:17:07.024Z,43.50
2018-09-20T12:19:41.407Z,42.51
2018-09-20T12:22:15.828Z,43.38
2018-09-20T12:24:50.284Z,43.00
2018-09-20T12:30:32.631Z,41.89
2018-09-20T12:33:06.967Z,41.86
2018-09-20T12:35:41.389Z,41.83
2018-09-20T12:38:15.777Z,42.01
2018-09-20T12:40:50.167Z,41.78
2018-09-20T12:43:24.554Z,42.09
2018-09-20T12:45:58.936Z,41.62
2018-09-20T12:48:33.304Z,42.20
2018-09-20T12:51:08.120Z,42.43
2018-09-20T12:53:42.610Z,43.36
2018-09-20T12:56:16.967Z,41.91
2018-09-20T12:58:52.076Z,41.94
2018-09-20T13:01:26.403Z,42.35
2018-09-20T13:04:00.823Z,41.39
2018-09-20T13:06:35.256Z,42.06
2018-09-20T13:09:10.491Z,41.75
2018-09-20T13:11:44.932Z,41.43
2018-09-20T13:14:19.290Z,41.61
2018-09-20T13:16:53.503Z,41.28
2018-09-20T13:19:27.900Z,40.21
2018-09-20T13:22:02.403Z,40.01
2018-09-20T13:24:36.788Z,40.67
2018-09-20T13:27:11.202Z,41.05
2018-09-20T13:29:45.527Z,40.34
2018-09-20T13:32:19.888Z,40.74
2018-09-20T13:34:54.235Z,41.13
2018-09-20T13:37:28.659Z,40.96
2018-09-20T13:40:03.207Z,41.80
2018-09-20T13:42:37.578Z,40.06
2018-09-20T13:45:11.999Z,39.97
2018-09-20T13:47:46.302Z,39.87
2018-09-20T13:50:20.655Z,40.01
2018-09-20T13:52:55.084Z,40.57
2018-09-20T13:55:29.507Z,40.84
2018-09-20T13:58:03.757Z,40.53
2018-09-20T14:00:38.132Z,38.50
2018-09-20T14:03:12.503Z,38.57
2018-09-20T14:05:47.182Z,39.54
2018-09-20T14:08:21.528Z,39.42
2018-09-20T14:10:55.849Z,39.38
2018-09-20T14:13:30.237Z,39.45
2018-09-20T14:16:04.754Z,38.59
2018-09-20T14:18:39.155Z,39.77
2018-09-20T14:21:13.500Z,38.12
2018-09-20T14:23:47.851Z,38.72
2018-09-20T14:26:22.281Z,37.69
2018-09-20T14:28:56.648Z,37.46
2018-09-20T14:31:31.025Z,37.21
2018-09-20T14:34:05.303Z,36.29
2018-09-20T14:36:39.700Z,34.99
2018-09-20T14:39:14.096Z,33.96
2018-09-20T14:41:48.592Z,33.25
2018-09-20T14:44:22.963Z,32.76
2018-09-20T14:46:57.156Z,31.95
2018-09-20T14:49:31.607Z,31.72
2018-09-20T14:52:06.107Z,31.37
2018-09-20T14:54:40.367Z,31.64
2018-09-20T14:57:14.803Z,31.98
2018-09-20T14:59:49.038Z,30.14
2018-09-20T15:02:23.306Z,30.64
2018-09-20T15:04:57.777Z,31.18
2018-09-20T15:07:32.164Z,31.46
2018-09-20T15:10:06.600Z,31.81
2018-09-20T15:12:40.967Z,32.31
2018-09-20T15:15:15.283Z,32.94
2018-09-20T15:17:49.719Z,33.86
2018-09-20T15:20:24.047Z,34.93
2018-09-20T15:22:58.468Z,34.73
2018-09-20T15:25:32.813Z,36.35
2018-09-20T15:28:07.175Z,35.97
2018-09-20T15:30:41.851Z,35.03
2018-09-20T15:33:16.349Z,35.11
2018-09-20T15:35:50.616Z,35.35
2018-09-20T15:38:24.843Z,35.40
2018-09-20T15:40:59.223Z,35.89
2018-09-20T15:43:33.613Z,37.12
2018-09-20T15:46:08.430Z,36.81
2018-09-20T15:48:42.895Z,35.92
2018-09-20T15:51:17.353Z,36.58
2018-09-20T15:53:51.732Z,35.26
2018-09-20T15:56:26.213Z,35.14
2018-09-20T15:59:00.658Z,34.86
2018-09-20T16:01:35.387Z,34.99
2018-09-20T16:04:09.835Z,34.40
2018-09-20T16:06:44.239Z,34.68
2018-09-20T16:09:18.684Z,34.49
2018-09-20T16:11:53.131Z,34.16
2018-09-20T16:17:37.585Z,33.85
2018-09-20T16:20:11.823Z,34.68
2018-09-20T16:22:46.240Z,34.65
2018-09-20T16:25:21.299Z,35.15
2018-09-20T16:27:59.208Z,35.96
2018-09-20T16:32:43.374Z,37.36
2018-09-20T16:35:24.656Z,38.75
2018-09-20T16:38:20.215Z,37.98
2018-09-20T16:40:58.505Z,38.17
2018-09-20T16:43:33.243Z,38.54
2018-09-20T16:46:07.599Z,39.36
2018-09-20T16:48:41.988Z,40.21
2018-09-20T16:51:16.373Z,39.68
2018-09-20T16:53:50.787Z,41.44
2018-09-20T16:56:25.043Z,40.71
2018-09-20T16:58:59.284Z,42.83
2018-09-20T17:01:33.717Z,40.88
2018-09-20T17:04:08.309Z,42.37
2018-09-20T17:06:42.758Z,41.10
2018-09-20T17:09:17.170Z,42.02
2018-09-20T17:11:51.705Z,42.53
2018-09-20T17:14:26.226Z,42.10
2018-09-20T17:17:00.818Z,43.46
2018-09-20T17:19:35.358Z,43.33
2018-09-20T17:22:09.916Z,42.43
2018-09-20T17:24:44.413Z,42.40
2018-09-20T17:27:18.960Z,42.55
2018-09-20T17:29:53.420Z,43.02
2018-09-20T17:32:28.081Z,43.65
2018-09-20T17:35:02.825Z,42.49
2018-09-20T17:37:38.828Z,42.10
2018-09-20T17:40:14.310Z,42.22
2018-09-20T17:42:50.173Z,41.94
2018-09-20T17:45:24.611Z,42.86
2018-09-20T17:47:59.192Z,42.35
2018-09-20T17:50:33.785Z,42.33
2018-09-20T17:53:08.800Z,42.95
2018-09-20T17:55:43.868Z,42.61
2018-09-20T17:58:19.527Z,43.58
2018-09-20T18:00:54.007Z,42.52
2018-09-20T18:03:28.497Z,42.66
2018-09-20T18:06:03.089Z,42.14
2018-09-20T18:08:43.380Z,43.45
2018-09-20T18:11:17.894Z,43.91
2018-09-20T18:13:52.377Z,42.39
2018-09-20T18:16:26.818Z,42.64
2018-09-20T18:19:01.345Z,42.69
2018-09-20T18:21:35.934Z,42.71
2018-09-20T18:24:10.441Z,43.36
2018-09-20T18:26:44.979Z,42.34
2018-09-20T18:29:19.423Z,42.24
2018-09-20T18:31:53.816Z,42.84
2018-09-20T18:34:28.651Z,43.37
2018-09-20T18:37:03.148Z,42.49
2018-09-20T18:39:37.920Z,43.60
2018-09-20T18:42:12.411Z,44.17
2018-09-20T18:44:47.032Z,43.66
2018-09-20T18:47:21.611Z,42.65
2018-09-20T18:49:56.150Z,42.81
2018-09-20T18:52:30.763Z,43.17
2018-09-20T18:55:06.124Z,43.01
2018-09-20T18:57:40.664Z,42.60
2018-09-20T19:00:15.497Z,42.55
2018-09-20T19:02:50.155Z,42.26
2018-09-20T19:05:24.729Z,42.80
2018-09-20T19:07:59.361Z,42.90
2018-09-20T19:10:33.965Z,42.86
2018-09-20T19:13:08.493Z,42.93
2018-09-20T19:15:43.071Z,43.59
2018-09-20T19:18:17.556Z,42.85
2018-09-20T19:20:52.184Z,43.30
2018-09-20T19:23:26.865Z,43.02
2018-09-20T19:26:01.477Z,43.08
2018-09-20T19:28:36.013Z,43.07
2018-09-20T19:31:10.413Z,43.08
2018-09-20T19:33:44.980Z,43.31
2018-09-20T19:36:19.519Z,43.57
2018-09-20T19:38:54.303Z,44.36
2018-09-20T19:41:28.818Z,43.31
2018-09-20T19:44:03.438Z,43.42
2018-09-20T19:46:37.908Z,43.94
2018-09-20T19:49:12.382Z,43.45
2018-09-20T19:51:46.864Z,43.79
2018-09-20T19:54:21.469Z,43.60
2018-09-20T19:56:55.887Z,44.36
2018-09-20T19:59:30.399Z,45.25
2018-09-20T20:02:04.941Z,43.96
2018-09-20T20:04:39.478Z,44.60
2018-09-20T20:07:14.148Z,44.57
2018-09-20T20:09:48.774Z,45.06
2018-09-20T20:12:23.268Z,45.18
2018-09-20T20:14:57.752Z,45.51
2018-09-20T20:17:32.374Z,45.17
2018-09-20T20:20:07.005Z,45.55
2018-09-20T20:22:41.672Z,45.56
2018-09-20T20:25:16.162Z,45.41
2018-09-20T20:27:50.801Z,46.04
2018-09-20T20:30:25.437Z,45.61
2018-09-20T20:33:00.053Z,45.76
2018-09-20T20:35:35.352Z,45.32
2018-09-20T20:38:09.867Z,45.98
2018-09-20T20:40:44.325Z,46.04
2018-09-20T20:43:18.900Z,46.27
2018-09-20T20:45:53.456Z,46.38
2018-09-20T20:48:27.981Z,46.55
2018-09-20T20:51:02.640Z,47.03
2018-09-20T20:53:37.308Z,46.84
2018-09-20T20:56:11.812Z,47.21
2018-09-20T20:58:51.290Z,46.98
2018-09-20T21:01:30.880Z,47.94
2018-09-20T21:04:05.337Z,48.21
2018-09-20T21:06:39.808Z,48.69
2018-09-20T21:09:14.298Z,48.29
2018-09-20T21:11:48.856Z,47.80
2018-09-20T21:14:32.009Z,48.42
2018-09-20T21:17:06.617Z,48.50
2018-09-20T21:19:41.167Z,47.88
2018-09-20T21:22:15.808Z,48.62
2018-09-20T21:24:50.422Z,48.43
2018-09-20T21:27:25.112Z,49.20
2018-09-20T21:30:03.614Z,49.11
2018-09-20T21:32:47.871Z,49.25
2018-09-20T21:35:22.395Z,49.20
2018-09-20T21:37:56.828Z,49.49
2018-09-20T21:40:31.381Z,49.19
2018-09-20T21:43:06.207Z,49.30
2018-09-20T21:45:40.705Z,49.62
2018-09-20T21:48:15.256Z,49.35
2018-09-20T21:50:49.693Z,49.92
2018-09-20T21:53:24.021Z,49.84
2018-09-20T21:55:58.435Z,49.75
2018-09-20T21:58:33.129Z,49.95
2018-09-20T22:01:11.768Z,49.90
2018-09-20T22:03:46.158Z,49.78
2018-09-20T22:06:20.598Z,50.48
2018-09-20T22:08:55.189Z,50.17
2018-09-20T22:11:47.677Z,50.64
2018-09-20T22:14:22.367Z,50.67
2018-09-20T22:16:57.127Z,50.21
2018-09-20T22:19:31.783Z,50.76
2018-09-20T22:22:06.369Z,50.37
2018-09-20T22:24:41.052Z,50.25
2018-09-20T22:27:15.796Z,50.81
2018-09-20T22:29:50.292Z,50.80
2018-09-20T22:32:24.680Z,50.66
2018-09-20T22:34:59.265Z,50.80
2018-09-20T22:37:33.705Z,50.48
2018-09-20T22:40:08.056Z,50.93
2018-09-20T22:42:43.329Z,50.84
2018-09-20T22:45:17.972Z,51.09
2018-09-20T22:47:52.487Z,51.41
2018-09-20T22:50:26.937Z,52.47
2018-09-20T22:53:01.336Z,51.98
2018-09-20T22:55:35.913Z,51.73
2018-09-20T22:58:10.249Z,51.49
2018-09-20T23:00:44.817Z,51.79
2018-09-20T23:03:19.340Z,51.49
2018-09-20T23:05:53.957Z,52.12
2018-09-20T23:08:28.398Z,52.44
2018-09-20T23:11:03.009Z,52.35
2018-09-20T23:13:37.501Z,52.73
2018-09-20T23:16:12.084Z,52.84
2018-09-20T23:18:46.618Z,52.90
2018-09-20T23:21:21.125Z,53.38
2018-09-20T23:23:55.489Z,53.05
2018-09-20T23:26:30.001Z,53.81
2018-09-20T23:29:04.522Z,53.11
2018-09-20T23:31:39.353Z,53.71
2018-09-20T23:34:14.999Z,53.88
2018-09-20T23:36:49.674Z,54.34
2018-09-20T23:39:24.333Z,54.01
2018-09-20T23:41:58.828Z,53.81
2018-09-20T23:44:33.415Z,54.19
2018-09-20T23:47:07.921Z,53.96
2018-09-20T23:49:42.557Z,54.43
2018-09-20T23:52:17.265Z,55.01
2018-09-20T23:54:51.871Z,54.42
2018-09-20T23:57:26.414Z,54.23
